sensor_id;sensor_type;location;lat;lon;timestamp;pressure;altitude;pressure_sealevel;temperature;humidity
67545;BME280;54380;47.770;11.150;2024-01-15T00:00:59;93553.47;;;0.69;64.59
67545;BME280;54380;47.770;11.150;2024-01-15T00:03:27;93558.41;;;0.71;64.29
67545;BME280;54380;47.770;11.150;2024-01-15T00:05:53;93547.50;;;0.80;64.18
67545;BME280;54380;47.770;11.150;2024-01-15T00:08:20;93545.03;;;0.85;63.49
67545;BME280;54380;47.770;11.150;2024-01-15T00:10:47;93547.88;;;0.96;62.97
67545;BME280;54380;47.770;11.150;2024-01-15T00:13:15;93539.63;;;0.99;61.38
67545;BME280;54380;47.770;11.150;2024-01-15T00:15:42;93541.00;;;1.01;61.18
67545;BME280;54380;47.770;11.150;2024-01-15T00:18:09;93538.50;;;0.95;62.73
67545;BME280;54380;47.770;11.150;2024-01-15T00:20:36;93545.84;;;0.98;63.00
67545;BME280;54380;47.770;11.150;2024-01-15T00:23:03;93542.81;;;1.01;63.08
67545;BME280;54380;47.770;11.150;2024-01-15T00:25:29;93533.53;;;1.05;62.82
67545;BME280;54380;47.770;11.150;2024-01-15T00:27:56;93528.91;;;1.07;62.93
67545;BME280;54380;47.770;11.150;2024-01-15T00:30:24;93523.38;;;1.15;62.62
67545;BME280;54380;47.770;11.150;2024-01-15T00:32:51;93529.72;;;1.19;62.46
67545;BME280;54380;47.770;11.150;2024-01-15T00:35:18;93539.88;;;1.21;61.94
67545;BME280;54380;47.770;11.150;2024-01-15T00:37:44;93534.69;;;1.21;61.64
67545;BME280;54380;47.770;11.150;2024-01-15T00:40:11;93538.63;;;1.23;61.07
67545;BME280;54380;47.770;11.150;2024-01-15T00:42:38;93533.91;;;1.20;61.65
67545;BME280;54380;47.770;11.150;2024-01-15T00:45:05;93540.44;;;1.23;61.81
67545;BME280;54380;47.770;11.150;2024-01-15T00:47:36;93537.06;;;1.22;60.97
67545;BME280;54380;47.770;11.150;2024-01-15T00:50:02;93535.72;;;1.20;62.51
67545;BME280;54380;47.770;11.150;2024-01-15T00:52:29;93537.63;;;1.24;62.44
67545;BME280;54380;47.770;11.150;2024-01-15T00:54:56;93542.38;;;1.27;62.57
67545;BME280;54380;47.770;11.150;2024-01-15T00:57:23;93531.53;;;1.30;63.54
67545;BME280;54380;47.770;11.150;2024-01-15T00:59:50;93533.47;;;1.35;62.35
67545;BME280;54380;47.770;11.150;2024-01-15T01:02:17;93529.25;;;1.34;62.61
67545;BME280;54380;47.770;11.150;2024-01-15T01:04:45;93523.63;;;1.37;62.46
67545;BME280;54380;47.770;11.150;2024-01-15T01:07:12;93528.84;;;1.37;61.58
67545;BME280;54380;47.770;11.150;2024-01-15T01:09:39;93531.66;;;1.36;61.04
67545;BME280;54380;47.770;11.150;2024-01-15T01:12:06;93533.47;;;1.35;62.71
67545;BME280;54380;47.770;11.150;2024-01-15T01:14:32;93538.41;;;1.37;62.48
67545;BME280;54380;47.770;11.150;2024-01-15T01:16:59;93538.66;;;1.35;61.79
67545;BME280;54380;47.770;11.150;2024-01-15T01:19:26;93542.25;;;1.34;61.67
67545;BME280;54380;47.770;11.150;2024-01-15T01:21:55;93544.84;;;1.34;61.77
67545;BME280;54380;47.770;11.150;2024-01-15T01:24:21;93536.38;;;1.39;60.89
67545;BME280;54380;47.770;11.150;2024-01-15T01:26:48;93547.56;;;1.39;60.51
67545;BME280;54380;47.770;11.150;2024-01-15T01:29:15;93543.88;;;1.35;61.00
67545;BME280;54380;47.770;11.150;2024-01-15T01:31:42;93538.88;;;1.34;60.45
67545;BME280;54380;47.770;11.150;2024-01-15T01:34:09;93539.44;;;1.36;60.19
67545;BME280;54380;47.770;11.150;2024-01-15T01:36:35;93544.66;;;1.36;60.79
67545;BME280;54380;47.770;11.150;2024-01-15T01:39:04;93550.63;;;1.36;60.77
67545;BME280;54380;47.770;11.150;2024-01-15T01:41:31;93548.03;;;1.36;60.07
67545;BME280;54380;47.770;11.150;2024-01-15T01:43:58;93543.88;;;1.35;59.81
67545;BME280;54380;47.770;11.150;2024-01-15T01:46:25;93550.06;;;1.34;60.65
67545;BME280;54380;47.770;11.150;2024-01-15T01:48:53;93557.53;;;1.30;60.39
67545;BME280;54380;47.770;11.150;2024-01-15T01:51:21;93546.91;;;1.32;60.09
67545;BME280;54380;47.770;11.150;2024-01-15T01:53:48;93559.91;;;1.32;60.24
67545;BME280;54380;47.770;11.150;2024-01-15T01:56:16;93559.22;;;1.37;59.69
67545;BME280;54380;47.770;11.150;2024-01-15T01:58:44;93563.63;;;1.36;59.38
67545;BME280;54380;47.770;11.150;2024-01-15T02:01:11;93561.94;;;1.30;59.60
67545;BME280;54380;47.770;11.150;2024-01-15T02:03:38;93564.63;;;1.23;59.72
67545;BME280;54380;47.770;11.150;2024-01-15T02:06:06;93567.47;;;1.22;59.81
67545;BME280;54380;47.770;11.150;2024-01-15T02:08:33;93564.31;;;1.20;60.03
67545;BME280;54380;47.770;11.150;2024-01-15T02:11:01;93553.44;;;1.23;60.09
67545;BME280;54380;47.770;11.150;2024-01-15T02:13:29;93555.06;;;1.24;60.14
67545;BME280;54380;47.770;11.150;2024-01-15T02:15:56;93563.28;;;1.21;60.45
67545;BME280;54380;47.770;11.150;2024-01-15T02:18:23;93560.22;;;1.12;60.86
67545;BME280;54380;47.770;11.150;2024-01-15T02:20:49;93565.63;;;1.10;60.96
67545;BME280;54380;47.770;11.150;2024-01-15T02:23:17;93575.03;;;1.12;60.44
67545;BME280;54380;47.770;11.150;2024-01-15T02:25:45;93567.00;;;1.13;60.27
67545;BME280;54380;47.770;11.150;2024-01-15T02:28:12;93571.63;;;1.11;60.51
67545;BME280;54380;47.770;11.150;2024-01-15T02:30:40;93580.44;;;1.10;60.49
67545;BME280;54380;47.770;11.150;2024-01-15T02:33:08;93582.03;;;1.11;60.54
67545;BME280;54380;47.770;11.150;2024-01-15T02:35:36;93580.69;;;1.08;60.32
67545;BME280;54380;47.770;11.150;2024-01-15T02:38:03;93576.47;;;1.07;60.45
67545;BME280;54380;47.770;11.150;2024-01-15T02:40:31;93583.94;;;1.04;60.79
67545;BME280;54380;47.770;11.150;2024-01-15T02:42:58;93587.56;;;1.03;60.83
67545;BME280;54380;47.770;11.150;2024-01-15T02:45:25;93591.59;;;0.99;60.53
67545;BME280;54380;47.770;11.150;2024-01-15T02:47:52;93588.66;;;0.95;59.99
67545;BME280;54380;47.770;11.150;2024-01-15T02:50:18;93587.25;;;0.81;59.99
67545;BME280;54380;47.770;11.150;2024-01-15T02:52:45;93610.03;;;0.67;60.43
67545;BME280;54380;47.770;11.150;2024-01-15T02:55:12;93609.16;;;0.55;60.53
67545;BME280;54380;47.770;11.150;2024-01-15T02:57:40;93616.78;;;0.38;61.07
67545;BME280;54380;47.770;11.150;2024-01-15T03:00:07;93615.31;;;0.24;61.28
67545;BME280;54380;47.770;11.150;2024-01-15T03:02:36;93626.88;;;0.09;61.81
67545;BME280;54380;47.770;11.150;2024-01-15T03:05:06;93627.38;;;-0.01;62.36
67545;BME280;54380;47.770;11.150;2024-01-15T03:07:34;93628.53;;;0.04;62.44
67545;BME280;54380;47.770;11.150;2024-01-15T03:10:00;93618.38;;;0.02;62.51
67545;BME280;54380;47.770;11.150;2024-01-15T03:12:27;93626.66;;;-0.08;62.50
67545;BME280;54380;47.770;11.150;2024-01-15T03:14:56;93620.25;;;-0.05;62.87
67545;BME280;54380;47.770;11.150;2024-01-15T03:17:23;93622.69;;;-0.10;62.99
67545;BME280;54380;47.770;11.150;2024-01-15T03:19:49;93633.84;;;-0.10;63.01
67545;BME280;54380;47.770;11.150;2024-01-15T03:22:16;93632.91;;;-0.15;63.10
67545;BME280;54380;47.770;11.150;2024-01-15T03:24:43;93623.34;;;-0.15;62.81
67545;BME280;54380;47.770;11.150;2024-01-15T03:27:10;93631.91;;;-0.14;62.56
67545;BME280;54380;47.770;11.150;2024-01-15T03:29:37;93631.13;;;-0.15;62.97
67545;BME280;54380;47.770;11.150;2024-01-15T03:32:05;93641.25;;;-0.13;62.94
67545;BME280;54380;47.770;11.150;2024-01-15T03:34:32;93639.03;;;-0.10;62.76
67545;BME280;54380;47.770;11.150;2024-01-15T03:36:59;93633.63;;;-0.08;62.48
67545;BME280;54380;47.770;11.150;2024-01-15T03:39:25;93636.88;;;-0.13;62.77
67545;BME280;54380;47.770;11.150;2024-01-15T03:41:52;93624.72;;;-0.12;62.59
67545;BME280;54380;47.770;11.150;2024-01-15T03:44:19;93615.31;;;-0.13;62.50
67545;BME280;54380;47.770;11.150;2024-01-15T03:46:46;93613.16;;;-0.16;62.38
67545;BME280;54380;47.770;11.150;2024-01-15T03:49:14;93612.38;;;-0.17;62.43
67545;BME280;54380;47.770;11.150;2024-01-15T03:51:41;93618.16;;;-0.15;62.17
67545;BME280;54380;47.770;11.150;2024-01-15T03:54:08;93614.75;;;-0.15;62.77
67545;BME280;54380;47.770;11.150;2024-01-15T03:56:35;93628.38;;;-0.20;62.80
67545;BME280;54380;47.770;11.150;2024-01-15T03:59:01;93626.78;;;-0.21;62.83
67545;BME280;54380;47.770;11.150;2024-01-15T04:01:28;93613.00;;;-0.22;62.47
67545;BME280;54380;47.770;11.150;2024-01-15T04:03:56;93618.00;;;-0.20;62.69
67545;BME280;54380;47.770;11.150;2024-01-15T04:06:25;93619.41;;;-0.24;62.64
67545;BME280;54380;47.770;11.150;2024-01-15T04:08:52;93619.66;;;-0.26;62.61
67545;BME280;54380;47.770;11.150;2024-01-15T04:11:18;93623.81;;;-0.25;62.35
67545;BME280;54380;47.770;11.150;2024-01-15T04:13:45;93630.59;;;-0.24;62.53
67545;BME280;54380;47.770;11.150;2024-01-15T04:16:12;93615.84;;;-0.23;62.45
67545;BME280;54380;47.770;11.150;2024-01-15T04:18:38;93630.81;;;-0.25;62.50
67545;BME280;54380;47.770;11.150;2024-01-15T04:21:05;93622.44;;;-0.27;62.86
67545;BME280;54380;47.770;11.150;2024-01-15T04:23:35;93623.63;;;-0.23;62.63
67545;BME280;54380;47.770;11.150;2024-01-15T04:26:02;93619.41;;;-0.24;62.14
67545;BME280;54380;47.770;11.150;2024-01-15T04:28:28;93618.03;;;-0.27;62.55
67545;BME280;54380;47.770;11.150;2024-01-15T04:30:55;93619.41;;;-0.24;62.30
67545;BME280;54380;47.770;11.150;2024-01-15T04:33:22;93627.63;;;-0.27;62.30
67545;BME280;54380;47.770;11.150;2024-01-15T04:35:50;93625.63;;;-0.25;62.17
67545;BME280;54380;47.770;11.150;2024-01-15T04:38:16;93626.84;;;-0.28;62.36
67545;BME280;54380;47.770;11.150;2024-01-15T04:40:45;93624.25;;;-0.28;62.43
67545;BME280;54380;47.770;11.150;2024-01-15T04:43:12;93629.44;;;-0.28;62.64
67545;BME280;54380;47.770;11.150;2024-01-15T04:45:38;93633.59;;;-0.27;62.86
67545;BME280;54380;47.770;11.150;2024-01-15T04:48:05;93629.78;;;-0.24;62.85
67545;BME280;54380;47.770;11.150;2024-01-15T04:50:32;93630.97;;;-0.20;62.24
67545;BME280;54380;47.770;11.150;2024-01-15T04:53:00;93634.34;;;-0.19;62.49
67545;BME280;54380;47.770;11.150;2024-01-15T04:55:26;93630.97;;;-0.20;62.30
67545;BME280;54380;47.770;11.150;2024-01-15T04:57:54;93628.16;;;-0.18;62.08
67545;BME280;54380;47.770;11.150;2024-01-15T05:00:21;93625.34;;;-0.17;62.55
67545;BME280;54380;47.770;11.150;2024-01-15T05:02:48;93635.72;;;-0.17;62.19
67545;BME280;54380;47.770;11.150;2024-01-15T05:05:15;93637.53;;;-0.17;62.63
67545;BME280;54380;47.770;11.150;2024-01-15T05:07:42;93636.50;;;-0.16;62.04
67545;BME280;54380;47.770;11.150;2024-01-15T05:10:09;93636.88;;;-0.13;62.34
67545;BME280;54380;47.770;11.150;2024-01-15T05:12:36;93630.69;;;-0.12;62.04
67545;BME280;54380;47.770;11.150;2024-01-15T05:15:05;93646.59;;;-0.08;61.87
67545;BME280;54380;47.770;11.150;2024-01-15T05:17:32;93633.63;;;-0.08;62.07
67545;BME280;54380;47.770;11.150;2024-01-15T05:19:59;93642.00;;;-0.06;61.86
67545;BME280;54380;47.770;11.150;2024-01-15T05:22:26;93633.22;;;-0.05;61.87
67545;BME280;54380;47.770;11.150;2024-01-15T05:24:53;93640.78;;;-0.04;61.86
67545;BME280;54380;47.770;11.150;2024-01-15T05:27:20;93643.75;;;0.00;61.54
67545;BME280;54380;47.770;11.150;2024-01-15T05:29:47;93641.56;;;-0.03;61.94
67545;BME280;54380;47.770;11.150;2024-01-15T05:32:15;93639.78;;;-0.03;61.35
67545;BME280;54380;47.770;11.150;2024-01-15T05:34:42;93641.34;;;-0.02;61.54
67545;BME280;54380;47.770;11.150;2024-01-15T05:37:10;93655.69;;;0.01;61.66
67545;BME280;54380;47.770;11.150;2024-01-15T05:39:37;93649.72;;;0.01;62.12
67545;BME280;54380;47.770;11.150;2024-01-15T05:42:04;93646.69;;;0.04;61.78
67545;BME280;54380;47.770;11.150;2024-01-15T05:44:30;93640.50;;;0.05;61.63
67545;BME280;54380;47.770;11.150;2024-01-15T05:46:57;93640.50;;;0.05;61.32
67545;BME280;54380;47.770;11.150;2024-01-15T05:49:25;93648.28;;;0.05;61.73
67545;BME280;54380;47.770;11.150;2024-01-15T05:51:52;93642.28;;;0.04;61.76
67545;BME280;54380;47.770;11.150;2024-01-15T05:54:19;93649.06;;;0.05;61.93
67545;BME280;54380;47.770;11.150;2024-01-15T05:56:46;93639.84;;;0.09;61.45
67545;BME280;54380;47.770;11.150;2024-01-15T05:59:13;93638.03;;;0.10;61.35
67545;BME280;54380;47.770;11.150;2024-01-15T06:01:41;93639.66;;;0.11;61.25
67545;BME280;54380;47.770;11.150;2024-01-15T06:04:08;93638.03;;;0.10;60.97
67545;BME280;54380;47.770;11.150;2024-01-15T06:06:37;93638.47;;;0.07;61.17
67545;BME280;54380;47.770;11.150;2024-01-15T06:09:03;93640.50;;;0.05;61.28
67545;BME280;54380;47.770;11.150;2024-01-15T06:11:32;93632.72;;;0.05;60.88
67545;BME280;54380;47.770;11.150;2024-01-15T06:13:59;93630.53;;;0.02;61.41
67545;BME280;54380;47.770;11.150;2024-01-15T06:16:28;93639.34;;;0.01;61.08
67545;BME280;54380;47.770;11.150;2024-01-15T06:18:55;93628.75;;;0.02;61.46
67545;BME280;54380;47.770;11.150;2024-01-15T06:21:22;93632.34;;;0.01;61.31
67545;BME280;54380;47.770;11.150;2024-01-15T06:23:51;93639.56;;;-0.01;60.88
67545;BME280;54380;47.770;11.150;2024-01-15T06:26:17;93645.75;;;-0.02;61.18
67545;BME280;54380;47.770;11.150;2024-01-15T06:28:44;93641.16;;;0.00;61.13
67545;BME280;54380;47.770;11.150;2024-01-15T06:31:11;93640.13;;;0.01;61.51
67545;BME280;54380;47.770;11.150;2024-01-15T06:33:38;93640.13;;;0.01;61.48
67545;BME280;54380;47.770;11.150;2024-01-15T06:36:06;93634.16;;;0.01;61.05
67545;BME280;54380;47.770;11.150;2024-01-15T06:38:33;93643.16;;;-0.02;61.29
67545;BME280;54380;47.770;11.150;2024-01-15T06:41:01;93637.38;;;-0.04;61.40
67545;BME280;54380;47.770;11.150;2024-01-15T06:43:28;93630.41;;;-0.04;61.05
67545;BME280;54380;47.770;11.150;2024-01-15T06:45:54;93636.97;;;-0.01;61.48
67545;BME280;54380;47.770;11.150;2024-01-15T06:48:21;93620.81;;;-0.03;61.69
67545;BME280;54380;47.770;11.150;2024-01-15T06:50:48;93615.22;;;0.00;61.38
67545;BME280;54380;47.770;11.150;2024-01-15T06:53:15;93613.63;;;-0.01;61.11
67545;BME280;54380;47.770;11.150;2024-01-15T06:55:41;93616.44;;;-0.03;61.67
67545;BME280;54380;47.770;11.150;2024-01-15T06:58:11;93605.63;;;0.01;61.27
67545;BME280;54380;47.770;11.150;2024-01-15T07:00:38;93609.00;;;0.01;61.39
67545;BME280;54380;47.770;11.150;2024-01-15T07:03:07;93611.81;;;-0.01;61.18
67545;BME280;54380;47.770;11.150;2024-01-15T07:05:34;93610.81;;;0.01;61.54
67545;BME280;54380;47.770;11.150;2024-01-15T07:08:01;93599.66;;;0.00;61.23
67545;BME280;54380;47.770;11.150;2024-01-15T07:10:28;93611.38;;;0.03;61.33
67545;BME280;54380;47.770;11.150;2024-01-15T07:12:54;93608.56;;;0.04;60.94
67545;BME280;54380;47.770;11.150;2024-01-15T07:15:23;93600.34;;;0.07;61.44
67545;BME280;54380;47.770;11.150;2024-01-15T07:17:51;93604.53;;;0.08;60.92
67545;BME280;54380;47.770;11.150;2024-01-15T07:20:18;93612.31;;;0.08;61.22
67545;BME280;54380;47.770;11.150;2024-01-15T07:22:46;93612.88;;;0.10;61.04
67545;BME280;54380;47.770;11.150;2024-01-15T07:25:13;93614.50;;;0.11;61.21
67545;BME280;54380;47.770;11.150;2024-01-15T07:27:39;93619.44;;;0.13;61.51
67545;BME280;54380;47.770;11.150;2024-01-15T07:30:09;93616.44;;;0.16;61.41
67545;BME280;54380;47.770;11.150;2024-01-15T07:32:38;93614.06;;;0.14;61.34
67545;BME280;54380;47.770;11.150;2024-01-15T07:35:05;93603.66;;;0.14;61.28
67545;BME280;54380;47.770;11.150;2024-01-15T07:37:32;93601.88;;;0.15;61.02
67545;BME280;54380;47.770;11.150;2024-01-15T07:40:00;93601.88;;;0.15;61.12
67545;BME280;54380;47.770;11.150;2024-01-15T07:42:27;93605.03;;;0.17;61.18
67545;BME280;54380;47.770;11.150;2024-01-15T07:44:54;93596.47;;;0.16;61.55
67545;BME280;54380;47.770;11.150;2024-01-15T07:47:21;93603.22;;;0.17;60.93
67545;BME280;54380;47.770;11.150;2024-01-15T07:49:50;93597.59;;;0.20;61.39
67545;BME280;54380;47.770;11.150;2024-01-15T07:52:17;93604.41;;;0.21;61.40
67545;BME280;54380;47.770;11.150;2024-01-15T07:54:44;93594.81;;;0.22;61.61
67545;BME280;54380;47.770;11.150;2024-01-15T07:57:10;93591.78;;;0.25;61.79
67545;BME280;54380;47.770;11.150;2024-01-15T07:59:37;93605.09;;;0.29;61.54
67545;BME280;54380;47.770;11.150;2024-01-15T08:02:04;93593.72;;;0.30;61.43
67545;BME280;54380;47.770;11.150;2024-01-15T08:04:31;93600.47;;;0.31;61.58
67545;BME280;54380;47.770;11.150;2024-01-15T08:06:59;93589.44;;;0.35;61.44
67545;BME280;54380;47.770;11.150;2024-01-15T08:09:27;93595.00;;;0.39;61.22
67545;BME280;54380;47.770;11.150;2024-01-15T08:11:54;93592.41;;;0.39;61.15
67545;BME280;54380;47.770;11.150;2024-01-15T08:14:21;93585.84;;;0.36;61.57
67545;BME280;54380;47.770;11.150;2024-01-15T08:16:47;93594.00;;;0.40;61.52
67545;BME280;54380;47.770;11.150;2024-01-15T08:19:14;93590.38;;;0.41;61.49
67545;BME280;54380;47.770;11.150;2024-01-15T08:21:41;93585.97;;;0.41;61.27
67545;BME280;54380;47.770;11.150;2024-01-15T08:24:09;93588.00;;;0.39;61.78
67545;BME280;54380;47.770;11.150;2024-01-15T08:26:36;93577.59;;;0.39;61.79
67545;BME280;54380;47.770;11.150;2024-01-15T08:29:03;93581.38;;;0.43;62.00
67545;BME280;54380;47.770;11.150;2024-01-15T08:31:30;93584.31;;;0.47;61.76
67545;BME280;54380;47.770;11.150;2024-01-15T08:33:57;93586.69;;;0.49;61.69
67545;BME280;54380;47.770;11.150;2024-01-15T08:36:26;93591.69;;;0.50;61.56
67545;BME280;54380;47.770;11.150;2024-01-15T08:38:52;93587.03;;;0.52;61.77
67545;BME280;54380;47.770;11.150;2024-01-15T08:41:21;93587.63;;;0.54;61.43
67545;BME280;54380;47.770;11.150;2024-01-15T08:43:47;93588.97;;;0.57;61.74
67545;BME280;54380;47.770;11.150;2024-01-15T08:46:14;93593.53;;;0.61;61.91
67545;BME280;54380;47.770;11.150;2024-01-15T08:48:41;93594.88;;;0.64;61.38
67545;BME280;54380;47.770;11.150;2024-01-15T08:51:08;93592.88;;;0.66;61.43
67545;BME280;54380;47.770;11.150;2024-01-15T08:53:35;93603.03;;;0.68;61.71
67545;BME280;54380;47.770;11.150;2024-01-15T08:56:02;93603.38;;;0.71;61.91
67545;BME280;54380;47.770;11.150;2024-01-15T08:58:30;93595.16;;;0.74;61.35
67545;BME280;54380;47.770;11.150;2024-01-15T09:00:57;93611.53;;;0.75;61.36
67545;BME280;54380;47.770;11.150;2024-01-15T09:03:24;93607.56;;;0.72;61.25
67545;BME280;54380;47.770;11.150;2024-01-15T09:05:52;93598.75;;;0.73;61.58
67545;BME280;54380;47.770;11.150;2024-01-15T09:08:18;93608.59;;;0.71;61.57
67545;BME280;54380;47.770;11.150;2024-01-15T09:10:45;93605.03;;;0.65;61.81
67545;BME280;54380;47.770;11.150;2024-01-15T09:13:12;93612.28;;;0.63;62.10
67545;BME280;54380;47.770;11.150;2024-01-15T09:15:42;93605.47;;;0.62;61.98
67545;BME280;54380;47.770;11.150;2024-01-15T09:18:09;93608.66;;;0.64;62.08
67545;BME280;54380;47.770;11.150;2024-01-15T09:20:36;93623.22;;;0.65;61.71
67545;BME280;54380;47.770;11.150;2024-01-15T09:23:03;93620.41;;;0.67;61.24
67545;BME280;54380;47.770;11.150;2024-01-15T09:25:29;93609.59;;;0.70;61.06
67545;BME280;54380;47.770;11.150;2024-01-15T09:27:56;93609.25;;;0.67;61.11
67545;BME280;54380;47.770;11.150;2024-01-15T09:30:24;93608.66;;;0.64;61.36
67545;BME280;54380;47.770;11.150;2024-01-15T09:32:52;93609.44;;;0.65;61.45
67545;BME280;54380;47.770;11.150;2024-01-15T09:35:19;93617.03;;;0.67;61.66
67545;BME280;54380;47.770;11.150;2024-01-15T09:37:49;93613.41;;;0.68;62.01
67545;BME280;54380;47.770;11.150;2024-01-15T09:40:16;93625.94;;;0.71;61.63
67545;BME280;54380;47.770;11.150;2024-01-15T09:42:44;93624.59;;;0.68;61.30
67545;BME280;54380;47.770;11.150;2024-01-15T09:45:11;93633.97;;;0.69;61.89
67545;BME280;54380;47.770;11.150;2024-01-15T09:47:39;93629.13;;;0.73;62.06
67545;BME280;54380;47.770;11.150;2024-01-15T09:50:14;93621.25;;;0.79;61.88
67545;BME280;54380;47.770;11.150;2024-01-15T09:52:44;93626.78;;;0.83;61.59
67545;BME280;54380;47.770;11.150;2024-01-15T09:55:11;93634.59;;;0.83;61.53
67545;BME280;54380;47.770;11.150;2024-01-15T09:57:39;93622.75;;;0.87;61.16
67545;BME280;54380;47.770;11.150;2024-01-15T10:00:06;93616.53;;;0.88;61.99
67545;BME280;54380;47.770;11.150;2024-01-15T10:02:34;93621.28;;;0.91;61.73
67545;BME280;54380;47.770;11.150;2024-01-15T10:05:02;93605.25;;;0.94;62.50
67545;BME280;54380;47.770;11.150;2024-01-15T10:07:31;93611.38;;;1.00;62.41
67545;BME280;54380;47.770;11.150;2024-01-15T10:10:01;93608.09;;;1.04;62.27
67545;BME280;54380;47.770;11.150;2024-01-15T10:12:29;93611.06;;;1.08;62.41
67545;BME280;54380;47.770;11.150;2024-01-15T10:14:57;93596.59;;;1.12;62.21
67545;BME280;54380;47.770;11.150;2024-01-15T10:17:24;93602.13;;;1.16;62.15
67545;BME280;54380;47.770;11.150;2024-01-15T10:19:51;93603.50;;;1.18;62.62
67545;BME280;54380;47.770;11.150;2024-01-15T10:22:18;93600.25;;;1.23;62.29
67545;BME280;54380;47.770;11.150;2024-01-15T10:24:47;93595.28;;;1.21;62.28
67545;BME280;54380;47.770;11.150;2024-01-15T10:27:15;93588.28;;;1.22;62.35
67545;BME280;54380;47.770;11.150;2024-01-15T10:29:42;93597.19;;;1.26;62.23
67545;BME280;54380;47.770;11.150;2024-01-15T10:32:09;93585.91;;;1.32;62.50
67545;BME280;54380;47.770;11.150;2024-01-15T10:34:40;93587.81;;;1.37;62.81
67545;BME280;54380;47.770;11.150;2024-01-15T10:37:08;93567.47;;;1.34;62.95
67545;BME280;54380;47.770;11.150;2024-01-15T10:39:35;93582.63;;;1.37;62.70
67545;BME280;54380;47.770;11.150;2024-01-15T10:42:04;93577.78;;;1.40;62.63
67545;BME280;54380;47.770;11.150;2024-01-15T10:44:33;93576.53;;;1.43;62.76
67545;BME280;54380;47.770;11.150;2024-01-15T10:46:59;93577.31;;;1.43;62.54
67545;BME280;54380;47.770;11.150;2024-01-15T10:49:27;93575.75;;;1.42;62.15
67545;BME280;54380;47.770;11.150;2024-01-15T10:51:59;93586.38;;;1.41;61.62
67545;BME280;54380;47.770;11.150;2024-01-15T10:54:27;93573.56;;;1.39;61.34
67545;BME280;54380;47.770;11.150;2024-01-15T10:56:55;93573.81;;;1.38;61.82
67545;BME280;54380;47.770;11.150;2024-01-15T10:59:23;93568.94;;;1.41;61.61
67545;BME280;54380;47.770;11.150;2024-01-15T11:01:50;93565.09;;;1.44;61.50
67545;BME280;54380;47.770;11.150;2024-01-15T11:04:21;93555.03;;;1.47;61.76
67545;BME280;54380;47.770;11.150;2024-01-15T11:06:51;93556.41;;;1.50;62.05
67545;BME280;54380;47.770;11.150;2024-01-15T11:09:19;93562.94;;;1.52;62.29
67545;BME280;54380;47.770;11.150;2024-01-15T11:11:46;93559.09;;;1.55;61.77
67545;BME280;54380;47.770;11.150;2024-01-15T11:16:57;93553.47;;;1.58;62.33
67545;BME280;54380;47.770;11.150;2024-01-15T11:19:25;93552.00;;;1.62;62.00
67545;BME280;54380;47.770;11.150;2024-01-15T11:21:53;93552.56;;;1.64;61.80
67545;BME280;54380;47.770;11.150;2024-01-15T11:24:33;93548.47;;;1.68;62.07
67545;BME280;54380;47.770;11.150;2024-01-15T11:27:01;93550.41;;;1.73;61.79
67545;BME280;54380;47.770;11.150;2024-01-15T11:29:29;93554.13;;;1.77;61.97
67545;BME280;54380;47.770;11.150;2024-01-15T11:31:59;93548.69;;;1.79;61.76
67545;BME280;54380;47.770;11.150;2024-01-15T11:37:12;93549.81;;;1.83;61.21
67545;BME280;54380;47.770;11.150;2024-01-15T11:39:39;93542.59;;;1.85;61.36
67545;BME280;54380;47.770;11.150;2024-01-15T11:42:06;93532.63;;;1.82;60.95
67545;BME280;54380;47.770;11.150;2024-01-15T11:44:33;93528.44;;;1.81;60.73
67545;BME280;54380;47.770;11.150;2024-01-15T11:47:01;93527.34;;;1.77;60.79
67545;BME280;54380;47.770;11.150;2024-01-15T11:49:34;93516.38;;;1.74;60.57
67545;BME280;54380;47.770;11.150;2024-01-15T11:52:08;93518.72;;;1.76;60.33
67545;BME280;54380;47.770;11.150;2024-01-15T11:54:37;93515.34;;;1.75;59.85
67545;BME280;54380;47.770;11.150;2024-01-15T11:57:06;93506.41;;;1.71;60.38
67545;BME280;54380;47.770;11.150;2024-01-15T11:59:36;93509.44;;;1.68;60.23
67545;BME280;54380;47.770;11.150;2024-01-15T12:02:04;93498.06;;;1.69;59.92
67545;BME280;54380;47.770;11.150;2024-01-15T12:04:30;93502.47;;;1.69;59.93
67545;BME280;54380;47.770;11.150;2024-01-15T12:06:57;93491.72;;;1.65;59.84
67545;BME280;54380;47.770;11.150;2024-01-15T12:09:24;93493.97;;;1.62;60.05
67545;BME280;54380;47.770;11.150;2024-01-15T12:11:53;93501.22;;;1.60;60.00
67545;BME280;54380;47.770;11.150;2024-01-15T12:14:23;93494.66;;;1.57;59.91
67545;BME280;54380;47.770;11.150;2024-01-15T12:16:50;93487.88;;;1.56;59.96
67545;BME280;54380;47.770;11.150;2024-01-15T12:19:18;93485.41;;;1.61;59.16
67545;BME280;54380;47.770;11.150;2024-01-15T12:21:45;93482.13;;;1.54;59.43
67545;BME280;54380;47.770;11.150;2024-01-15T12:24:12;93483.38;;;1.51;59.22
67545;BME280;54380;47.770;11.150;2024-01-15T12:26:38;93480.75;;;1.51;59.44
67545;BME280;54380;47.770;11.150;2024-01-15T12:29:06;93471.03;;;1.47;58.94
67545;BME280;54380;47.770;11.150;2024-01-15T12:31:33;93468.91;;;1.44;59.20
67545;BME280;54380;47.770;11.150;2024-01-15T12:34:01;93455.00;;;1.38;58.56
67545;BME280;54380;47.770;11.150;2024-01-15T12:36:31;93463.47;;;1.34;58.30
67545;BME280;54380;47.770;11.150;2024-01-15T12:38:59;93464.16;;;1.29;58.78
67545;BME280;54380;47.770;11.150;2024-01-15T12:41:25;93463.03;;;1.25;58.84
67545;BME280;54380;47.770;11.150;2024-01-15T12:43:52;93462.47;;;1.23;58.80
67545;BME280;54380;47.770;11.150;2024-01-15T12:46:19;93458.31;;;1.22;58.49
67545;BME280;54380;47.770;11.150;2024-01-15T12:48:47;93460.13;;;1.21;58.64
67545;BME280;54380;47.770;11.150;2024-01-15T12:51:14;93455.81;;;1.27;58.61
67545;BME280;54380;47.770;11.150;2024-01-15T12:53:43;93461.34;;;1.30;58.47
67545;BME280;54380;47.770;11.150;2024-01-15T12:56:09;93450.28;;;1.35;58.48
67545;BME280;54380;47.770;11.150;2024-01-15T12:58:36;93445.28;;;1.34;58.18
67545;BME280;54380;47.770;11.150;2024-01-15T13:01:03;93430.47;;;1.34;57.78
67545;BME280;54380;47.770;11.150;2024-01-15T13:03:31;93428.34;;;1.31;57.52